sensor_id;sensor_type;location;lat;lon;timestamp;pressure;altitude;pressure_sealevel;temperature;humidity
51289;BME280;37372;52.294;5.152;2022-12-18T00:02:13;102861.59;;;-3.85;100.00
51289;BME280;37372;52.294;5.152;2022-12-18T00:04:38;102864.59;;;-3.87;100.00
51289;BME280;37372;52.294;5.152;2022-12-18T00:07:04;102869.22;;;-3.93;100.00
51289;BME280;37372;52.294;5.152;2022-12-18T00:09:29;102868.94;;;-3.96;100.00
51289;BME280;37372;52.294;5.152;2022-12-18T00:11:54;102860.41;;;-4.00;100.00
51289;BME280;37372;52.294;5.152;2022-12-18T00:14:20;102853.13;;;-3.79;100.00
51289;BME280;37372;52.294;5.152;2022-12-18T00:16:46;102857.66;;;-4.00;100.00
51289;BME280;37372;52.294;5.152;2022-12-18T00:19:12;102847.84;;;-3.90;100.00
51289;BME280;37372;52.294;5.152;2022-12-18T00:21:41;102862.09;;;-3.94;100.00
51289;BME280;37372;52.294;5.152;2022-12-18T00:24:07;102852.78;;;-3.87;100.00
51289;BME280;37372;52.294;5.152;2022-12-18T00:26:34;102860.19;;;-3.88;100.00
51289;BME280;37372;52.294;5.152;2022-12-18T00:29:02;102866.47;;;-3.93;100.00
51289;BME280;37372;52.294;5.152;2022-12-18T00:31:28;102861.00;;;-3.93;100.00
51289;BME280;37372;52.294;5.152;2022-12-18T00:33:55;102860.13;;;-4.03;100.00
51289;BME280;37372;52.294;5.152;2022-12-18T00:36:32;102851.38;;;-4.00;100.00
51289;BME280;37372;52.294;5.152;2022-12-18T00:38:59;102862.09;;;-3.94;100.00
51289;BME280;37372;52.294;5.152;2022-12-18T00:41:26;102853.91;;;-3.83;100.00
51289;BME280;37372;52.294;5.152;2022-12-18T00:44:23;102868.41;;;-3.93;100.00
51289;BME280;37372;52.294;5.152;2022-12-18T00:46:49;102858.53;;;-3.94;100.00
51289;BME280;37372;52.294;5.152;2022-12-18T00:49:17;102865.38;;;-3.97;100.00
51289;BME280;37372;52.294;5.152;2022-12-18T00:51:42;102855.47;;;-4.03;100.00
51289;BME280;37372;52.294;5.152;2022-12-18T00:54:08;102860.94;;;-4.03;100.00
51289;BME280;37372;52.294;5.152;2022-12-18T00:56:35;102858.78;;;-4.01;100.00
51289;BME280;37372;52.294;5.152;2022-12-18T00:59:01;102853.28;;;-4.01;100.00
51289;BME280;37372;52.294;5.152;2022-12-18T01:01:26;102858.19;;;-4.08;100.00
51289;BME280;37372;52.294;5.152;2022-12-18T01:03:51;102858.16;;;-4.13;100.00
51289;BME280;37372;52.294;5.152;2022-12-18T01:06:17;102853.47;;;-4.18;100.00
51289;BME280;37372;52.294;5.152;2022-12-18T01:08:42;102854.53;;;-4.24;100.00
51289;BME280;37372;52.294;5.152;2022-12-18T01:11:13;102850.72;;;-4.18;100.00
51289;BME280;37372;52.294;5.152;2022-12-18T01:13:39;102852.66;;;-4.18;100.00
51289;BME280;37372;52.294;5.152;2022-12-18T01:16:05;102854.28;;;-4.27;100.00
51289;BME280;37372;52.294;5.152;2022-12-18T01:18:31;102853.72;;;-4.24;100.00
51289;BME280;37372;52.294;5.152;2022-12-18T01:20:56;102853.34;;;-4.38;100.00
51289;BME280;37372;52.294;5.152;2022-12-18T01:23:21;102859.72;;;-4.32;100.00
51289;BME280;37372;52.294;5.152;2022-12-18T01:25:47;102858.88;;;-4.33;100.00
51289;BME280;37372;52.294;5.152;2022-12-18T01:28:12;102856.88;;;-4.43;100.00
51289;BME280;37372;52.294;5.152;2022-12-18T01:30:38;102857.47;;;-4.41;100.00
51289;BME280;37372;52.294;5.152;2022-12-18T01:33:05;102857.16;;;-4.44;100.00
51289;BME280;37372;52.294;5.152;2022-12-18T01:35:31;102858.50;;;-4.52;100.00
51289;BME280;37372;52.294;5.152;2022-12-18T01:37:56;102862.22;;;-4.63;100.00
51289;BME280;37372;52.294;5.152;2022-12-18T01:40:22;102859.53;;;-4.58;100.00
51289;BME280;37372;52.294;5.152;2022-12-18T01:42:52;102862.78;;;-4.61;100.00
51289;BME280;37372;52.294;5.152;2022-12-18T01:45:23;102869.56;;;-4.74;100.00
51289;BME280;37372;52.294;5.152;2022-12-18T01:47:55;102870.34;;;-4.78;100.00
51289;BME280;37372;52.294;5.152;2022-12-18T01:50:41;102867.56;;;-4.84;100.00
51289;BME280;37372;52.294;5.152;2022-12-18T01:53:14;102877.44;;;-4.83;100.00
51289;BME280;37372;52.294;5.152;2022-12-18T01:55:45;102886.09;;;-4.96;100.00
51289;BME280;37372;52.294;5.152;2022-12-18T01:58:15;102894.34;;;-4.91;100.00
51289;BME280;37372;52.294;5.152;2022-12-18T02:00:41;102903.72;;;-4.82;100.00
51289;BME280;37372;52.294;5.152;2022-12-18T02:03:06;102903.72;;;-4.82;100.00
51289;BME280;37372;52.294;5.152;2022-12-18T02:08:16;102896.88;;;-4.79;100.00
51289;BME280;37372;52.294;5.152;2022-12-18T02:11:18;102911.44;;;-4.73;100.00
51289;BME280;37372;52.294;5.152;2022-12-18T02:14:06;102927.38;;;-4.70;100.00
51289;BME280;37372;52.294;5.152;2022-12-18T02:22:43;102931.22;;;-4.66;100.00
51289;BME280;37372;52.294;5.152;2022-12-18T02:27:49;102936.13;;;-4.68;100.00
51289;BME280;37372;52.294;5.152;2022-12-18T02:30:17;102927.97;;;-4.63;100.00
51289;BME280;37372;52.294;5.152;2022-12-18T02:32:48;102905.47;;;-4.70;100.00
51289;BME280;37372;52.294;5.152;2022-12-18T02:35:19;102899.81;;;-4.91;100.00
51289;BME280;37372;52.294;5.152;2022-12-18T02:37:46;102898.16;;;-4.92;100.00
51289;BME280;37372;52.294;5.152;2022-12-18T02:40:14;102888.25;;;-4.98;100.00
51289;BME280;37372;52.294;5.152;2022-12-18T02:42:40;102875.13;;;-4.96;100.00
51289;BME280;37372;52.294;5.152;2022-12-18T02:45:07;102870.69;;;-5.02;100.00
51289;BME280;37372;52.294;5.152;2022-12-18T02:47:34;102869.28;;;-5.05;100.00
51289;BME280;37372;52.294;5.152;2022-12-18T02:50:18;102872.34;;;-5.01;100.00
51289;BME280;37372;52.294;5.152;2022-12-18T02:53:29;102863.13;;;-4.90;100.00
51289;BME280;37372;52.294;5.152;2022-12-18T02:56:13;102860.41;;;-4.90;100.00
51289;BME280;37372;52.294;5.152;2022-12-18T02:58:47;102854.59;;;-4.98;100.00
51289;BME280;37372;52.294;5.152;2022-12-18T03:01:55;102859.16;;;-5.04;100.00
51289;BME280;37372;52.294;5.152;2022-12-18T03:04:25;102853.53;;;-4.92;100.00
51289;BME280;37372;52.294;5.152;2022-12-18T03:07:05;102849.94;;;-4.98;100.00
51289;BME280;37372;52.294;5.152;2022-12-18T03:09:35;102857.03;;;-4.97;100.00
51289;BME280;37372;52.294;5.152;2022-12-18T03:12:10;102853.25;;;-4.96;100.00
51289;BME280;37372;52.294;5.152;2022-12-18T03:17:25;102856.22;;;-4.97;100.00
51289;BME280;37372;52.294;5.152;2022-12-18T03:19:52;102846.53;;;-5.10;100.00
51289;BME280;37372;52.294;5.152;2022-12-18T03:22:20;102849.19;;;-5.20;100.00
51289;BME280;37372;52.294;5.152;2022-12-18T03:24:48;102835.28;;;-5.14;100.00
51289;BME280;37372;52.294;5.152;2022-12-18T03:27:17;102848.88;;;-5.24;100.00
51289;BME280;37372;52.294;5.152;2022-12-18T03:29:55;102849.91;;;-5.30;100.00
51289;BME280;37372;52.294;5.152;2022-12-18T03:32:35;102833.25;;;-5.29;100.00
51289;BME280;37372;52.294;5.152;2022-12-18T03:35:05;102830.84;;;-5.47;100.00
51289;BME280;37372;52.294;5.152;2022-12-18T03:37:32;102829.22;;;-5.48;100.00
51289;BME280;37372;52.294;5.152;2022-12-18T03:39:58;102821.47;;;-5.56;100.00
51289;BME280;37372;52.294;5.152;2022-12-18T03:45:31;102828.63;;;-5.50;100.00
51289;BME280;37372;52.294;5.152;2022-12-18T03:48:12;102824.03;;;-5.45;100.00
51289;BME280;37372;52.294;5.152;2022-12-18T03:50:48;102823.53;;;-5.41;100.00
51289;BME280;37372;52.294;5.152;2022-12-18T03:53:39;102812.59;;;-5.41;100.00
51289;BME280;37372;52.294;5.152;2022-12-18T03:56:08;102811.75;;;-5.42;100.00
51289;BME280;37372;52.294;5.152;2022-12-18T03:58:35;102818.84;;;-5.46;100.00
51289;BME280;37372;52.294;5.152;2022-12-18T04:01:05;102810.41;;;-5.39;100.00
51289;BME280;37372;52.294;5.152;2022-12-18T04:03:33;102807.94;;;-5.41;100.00
51289;BME280;37372;52.294;5.152;2022-12-18T04:06:00;102801.97;;;-5.38;100.00
51289;BME280;37372;52.294;5.152;2022-12-18T04:08:28;102810.63;;;-5.46;100.00
51289;BME280;37372;52.294;5.152;2022-12-18T04:10:53;102797.53;;;-5.44;100.00
51289;BME280;37372;52.294;5.152;2022-12-18T04:13:30;102789.22;;;-5.54;100.00
51289;BME280;37372;52.294;5.152;2022-12-18T04:15:57;102790.34;;;-5.50;100.00
51289;BME280;37372;52.294;5.152;2022-12-18T04:18:23;102784.34;;;-5.47;100.00
51289;BME280;37372;52.294;5.152;2022-12-18T04:20:48;102794.59;;;-5.64;100.00
51289;BME280;37372;52.294;5.152;2022-12-18T04:23:13;102780.97;;;-5.59;100.00
51289;BME280;37372;52.294;5.152;2022-12-18T04:25:39;102789.09;;;-5.70;100.00
51289;BME280;37372;52.294;5.152;2022-12-18T04:28:04;102788.97;;;-5.80;100.00
51289;BME280;37372;52.294;5.152;2022-12-18T04:30:30;102787.63;;;-5.77;100.00
51289;BME280;37372;52.294;5.152;2022-12-18T04:32:56;102793.41;;;-5.74;100.00
51289;BME280;37372;52.294;5.152;2022-12-18T04:35:21;102794.56;;;-5.70;100.00
51289;BME280;37372;52.294;5.152;2022-12-18T04:37:47;102796.19;;;-5.69;100.00
51289;BME280;37372;52.294;5.152;2022-12-18T04:40:13;102798.41;;;-5.65;100.00
51289;BME280;37372;52.294;5.152;2022-12-18T04:42:39;102806.41;;;-5.59;100.00
51289;BME280;37372;52.294;5.152;2022-12-18T04:45:06;102817.34;;;-5.59;100.00
51289;BME280;37372;52.294;5.152;2022-12-18T04:47:31;102816.53;;;-5.59;100.00
51289;BME280;37372;52.294;5.152;2022-12-18T04:49:57;102825.78;;;-5.60;100.00
51289;BME280;37372;52.294;5.152;2022-12-18T04:52:22;102835.63;;;-5.64;100.00
51289;BME280;37372;52.294;5.152;2022-12-18T04:54:48;102835.09;;;-5.61;100.00
51289;BME280;37372;52.294;5.152;2022-12-18T04:57:13;102840.56;;;-5.61;100.00
51289;BME280;37372;52.294;5.152;2022-12-18T04:59:38;102836.44;;;-5.64;100.00
51289;BME280;37372;52.294;5.152;2022-12-18T05:02:04;102841.31;;;-5.66;100.00
51289;BME280;37372;52.294;5.152;2022-12-18T05:04:29;102849.28;;;-5.64;100.00
51289;BME280;37372;52.294;5.152;2022-12-18T05:06:54;102849.84;;;-5.62;100.00
51289;BME280;37372;52.294;5.152;2022-12-18T05:09:20;102848.78;;;-5.61;100.00
51289;BME280;37372;52.294;5.152;2022-12-18T05:11:45;102859.06;;;-5.69;100.00
51289;BME280;37372;52.294;5.152;2022-12-18T05:14:12;102865.63;;;-5.70;100.00
51289;BME280;37372;52.294;5.152;2022-12-18T05:16:37;102858.38;;;-5.81;100.00
51289;BME280;37372;52.294;5.152;2022-12-18T05:19:03;102860.72;;;-5.95;100.00
51289;BME280;37372;52.294;5.152;2022-12-18T05:21:28;102851.06;;;-6.02;100.00
51289;BME280;37372;52.294;5.152;2022-12-18T05:23:53;102867.97;;;-6.05;100.00
51289;BME280;37372;52.294;5.152;2022-12-18T05:26:19;102874.56;;;-6.01;100.00
51289;BME280;37372;52.294;5.152;2022-12-18T05:28:44;102872.34;;;-6.04;100.00
51289;BME280;37372;52.294;5.152;2022-12-18T05:31:11;102876.72;;;-6.03;100.00
51289;BME280;37372;52.294;5.152;2022-12-18T05:33:37;102879.44;;;-6.03;100.00
51289;BME280;37372;52.294;5.152;2022-12-18T05:36:06;102865.53;;;-6.02;100.00
51289;BME280;37372;52.294;5.152;2022-12-18T05:38:34;102853.78;;;-6.02;100.00
51289;BME280;37372;52.294;5.152;2022-12-18T05:41:00;102858.09;;;-6.06;100.00
51289;BME280;37372;52.294;5.152;2022-12-18T05:43:26;102852.75;;;-6.18;100.00
51289;BME280;37372;52.294;5.152;2022-12-18T05:45:53;102844.00;;;-6.20;100.00
51289;BME280;37372;52.294;5.152;2022-12-18T05:48:19;102843.22;;;-6.16;100.00
51289;BME280;37372;52.294;5.152;2022-12-18T05:50:46;102845.47;;;-6.13;100.00
51289;BME280;37372;52.294;5.152;2022-12-18T05:53:14;102838.31;;;-6.14;100.00
51289;BME280;37372;52.294;5.152;2022-12-18T05:55:40;102829.31;;;-6.14;100.00
51289;BME280;37372;52.294;5.152;2022-12-18T05:58:07;102827.91;;;-6.17;100.00
51289;BME280;37372;52.294;5.152;2022-12-18T06:00:36;102825.09;;;-6.22;100.00
51289;BME280;37372;52.294;5.152;2022-12-18T06:03:05;102831.03;;;-6.30;100.00
51289;BME280;37372;52.294;5.152;2022-12-18T06:05:35;102832.66;;;-6.29;100.00
51289;BME280;37372;52.294;5.152;2022-12-18T06:08:01;102826.97;;;-6.27;100.00
51289;BME280;37372;52.294;5.152;2022-12-18T06:10:27;102823.34;;;-6.33;100.00
51289;BME280;37372;52.294;5.152;2022-12-18T06:12:52;102827.94;;;-6.34;100.00
51289;BME280;37372;52.294;5.152;2022-12-18T06:15:17;102824.47;;;-6.29;100.00
51289;BME280;37372;52.294;5.152;2022-12-18T06:17:43;102827.53;;;-6.25;100.00
51289;BME280;37372;52.294;5.152;2022-12-18T06:20:09;102833.25;;;-6.27;100.00
51289;BME280;37372;52.294;5.152;2022-12-18T06:22:34;102834.06;;;-6.26;100.00
51289;BME280;37372;52.294;5.152;2022-12-18T06:25:00;102821.81;;;-6.24;100.00
51289;BME280;37372;52.294;5.152;2022-12-18T06:27:25;102818.56;;;-6.21;100.00
51289;BME280;37372;52.294;5.152;2022-12-18T06:29:51;102816.69;;;-6.20;100.00
51289;BME280;37372;52.294;5.152;2022-12-18T06:32:16;102813.25;;;-6.10;100.00
51289;BME280;37372;52.294;5.152;2022-12-18T06:34:41;102809.38;;;-6.15;100.00
51289;BME280;37372;52.294;5.152;2022-12-18T06:37:07;102797.28;;;-6.19;100.00
51289;BME280;37372;52.294;5.152;2022-12-18T06:39:32;102789.03;;;-6.24;100.00
51289;BME280;37372;52.294;5.152;2022-12-18T06:41:57;102788.09;;;-6.13;100.00
51289;BME280;37372;52.294;5.152;2022-12-18T06:44:23;102772.97;;;-6.20;100.00
51289;BME280;37372;52.294;5.152;2022-12-18T06:46:48;102771.63;;;-6.18;100.00
51289;BME280;37372;52.294;5.152;2022-12-18T06:49:14;102783.63;;;-6.19;100.00
51289;BME280;37372;52.294;5.152;2022-12-18T06:51:41;102774.31;;;-6.23;100.00
51289;BME280;37372;52.294;5.152;2022-12-18T06:54:07;102763.09;;;-6.21;100.00
51289;BME280;37372;52.294;5.152;2022-12-18T06:56:33;102762.34;;;-6.17;100.00
51289;BME280;37372;52.294;5.152;2022-12-18T06:58:58;102755.25;;;-6.18;100.00
51289;BME280;37372;52.294;5.152;2022-12-18T07:01:24;102753.56;;;-6.19;100.00
51289;BME280;37372;52.294;5.152;2022-12-18T07:03:56;102742.91;;;-6.20;100.00
51289;BME280;37372;52.294;5.152;2022-12-18T07:06:24;102737.19;;;-6.19;100.00
51289;BME280;37372;52.294;5.152;2022-12-18T07:08:50;102744.25;;;-6.23;100.00
51289;BME280;37372;52.294;5.152;2022-12-18T07:11:17;102742.06;;;-6.21;100.00
51289;BME280;37372;52.294;5.152;2022-12-18T07:13:43;102743.91;;;-6.26;100.00
51289;BME280;37372;52.294;5.152;2022-12-18T07:18:38;102747.53;;;-6.21;100.00
51289;BME280;37372;52.294;5.152;2022-12-18T07:21:09;102741.56;;;-6.18;100.00
51289;BME280;37372;52.294;5.152;2022-12-18T07:23:35;102737.19;;;-6.19;100.00
51289;BME280;37372;52.294;5.152;2022-12-18T07:26:06;102735.84;;;-6.16;100.00
51289;BME280;37372;52.294;5.152;2022-12-18T07:28:33;102741.31;;;-6.16;100.00
51289;BME280;37372;52.294;5.152;2022-12-18T07:31:23;102742.28;;;-6.05;100.00
51289;BME280;37372;52.294;5.152;2022-12-18T07:33:48;102740.31;;;-6.10;100.00
51289;BME280;37372;52.294;5.152;2022-12-18T07:36:13;102735.03;;;-6.17;100.00
51289;BME280;37372;52.294;5.152;2022-12-18T07:38:40;102728.56;;;-6.10;100.00
51289;BME280;37372;52.294;5.152;2022-12-18T07:41:11;102718.31;;;-6.20;100.00
51289;BME280;37372;52.294;5.152;2022-12-18T07:43:38;102713.16;;;-6.17;100.00
51289;BME280;37372;52.294;5.152;2022-12-18T07:46:04;102700.06;;;-6.15;100.00
51289;BME280;37372;52.294;5.152;2022-12-18T07:48:30;102698.31;;;-6.26;100.00
51289;BME280;37372;52.294;5.152;2022-12-18T07:51:00;102694.03;;;-6.17;100.00
51289;BME280;37372;52.294;5.152;2022-12-18T07:53:26;102677.91;;;-6.18;100.00
51289;BME280;37372;52.294;5.152;2022-12-18T07:55:58;102680.91;;;-6.20;100.00
51289;BME280;37372;52.294;5.152;2022-12-18T07:58:24;102684.84;;;-6.10;100.00
51289;BME280;37372;52.294;5.152;2022-12-18T08:00:49;102683.28;;;-6.01;100.00
51289;BME280;37372;52.294;5.152;2022-12-18T08:03:15;102678.66;;;-5.96;100.00
51289;BME280;37372;52.294;5.152;2022-12-18T08:05:40;102678.66;;;-5.96;100.00
51289;BME280;37372;52.294;5.152;2022-12-18T08:08:06;102679.25;;;-5.94;100.00
51289;BME280;37372;52.294;5.152;2022-12-18T08:10:31;102690.97;;;-5.93;100.00
51289;BME280;37372;52.294;5.152;2022-12-18T08:12:57;102689.94;;;-5.87;100.00
51289;BME280;37372;52.294;5.152;2022-12-18T08:15:22;102695.94;;;-5.90;100.00
51289;BME280;37372;52.294;5.152;2022-12-18T08:17:47;102699.53;;;-5.84;100.00
51289;BME280;37372;52.294;5.152;2022-12-18T08:20:13;102697.66;;;-5.79;100.00
51289;BME280;37372;52.294;5.152;2022-12-18T08:22:41;102712.53;;;-5.70;100.00
51289;BME280;37372;52.294;5.152;2022-12-18T08:25:07;102715.03;;;-5.63;100.00
51289;BME280;37372;52.294;5.152;2022-12-18T08:27:32;102718.09;;;-5.59;100.00
51289;BME280;37372;52.294;5.152;2022-12-18T08:29:58;102724.38;;;-5.59;100.00
51289;BME280;37372;52.294;5.152;2022-12-18T08:32:24;102720.16;;;-5.72;100.00
51289;BME280;37372;52.294;5.152;2022-12-18T08:34:50;102719.09;;;-5.65;100.00
51289;BME280;37372;52.294;5.152;2022-12-18T08:37:16;102716.41;;;-5.60;100.00
51289;BME280;37372;52.294;5.152;2022-12-18T08:39:41;102719.09;;;-5.65;100.00
51289;BME280;37372;52.294;5.152;2022-12-18T08:42:06;102712.34;;;-5.58;100.00
51289;BME280;37372;52.294;5.152;2022-12-18T08:44:50;102713.06;;;-5.68;100.00
51289;BME280;37372;52.294;5.152;2022-12-18T08:47:16;102704.41;;;-5.59;100.00
51289;BME280;37372;52.294;5.152;2022-12-18T08:49:42;102709.31;;;-5.61;100.00
51289;BME280;37372;52.294;5.152;2022-12-18T08:52:07;102711.53;;;-5.58;100.00
51289;BME280;37372;52.294;5.152;2022-12-18T08:54:32;102716.81;;;-5.47;100.00
51289;BME280;37372;52.294;5.152;2022-12-18T08:56:58;102714.38;;;-5.43;100.00
51289;BME280;37372;52.294;5.152;2022-12-18T08:59:23;102721.25;;;-5.40;100.00
51289;BME280;37372;52.294;5.152;2022-12-18T09:01:48;102708.34;;;-5.45;100.00
51289;BME280;37372;52.294;5.152;2022-12-18T09:04:14;102704.56;;;-5.39;100.00
51289;BME280;37372;52.294;5.152;2022-12-18T09:06:39;102691.44;;;-5.37;100.00
51289;BME280;37372;52.294;5.152;2022-12-18T09:09:05;102689.84;;;-5.33;100.00
51289;BME280;37372;52.294;5.152;2022-12-18T09:11:32;102685.00;;;-5.20;100.00
51289;BME280;37372;52.294;5.152;2022-12-18T09:13:59;102685.03;;;-5.15;100.00
51289;BME280;37372;52.294;5.152;2022-12-18T09:16:25;102690.53;;;-5.10;100.00
51289;BME280;37372;52.294;5.152;2022-12-18T09:18:51;102702.66;;;-5.01;100.00
51289;BME280;37372;52.294;5.152;2022-12-18T09:21:19;102697.25;;;-4.91;100.00
51289;BME280;37372;52.294;5.152;2022-12-18T09:23:49;102690.63;;;-4.95;100.00
51289;BME280;37372;52.294;5.152;2022-12-18T09:26:15;102692.28;;;-4.94;100.00
51289;BME280;37372;52.294;5.152;2022-12-18T09:28:41;102689.56;;;-4.89;100.00
51289;BME280;37372;52.294;5.152;2022-12-18T09:31:08;102685.13;;;-5.00;100.00
51289;BME280;37372;52.294;5.152;2022-12-18T09:33:35;102683.81;;;-4.92;100.00
51289;BME280;37372;52.294;5.152;2022-12-18T09:36:02;102674.25;;;-4.90;100.00
51289;BME280;37372;52.294;5.152;2022-12-18T09:38:28;102666.91;;;-4.79;100.00
51289;BME280;37372;52.294;5.152;2022-12-18T09:40:57;102670.47;;;-4.73;100.00
51289;BME280;37372;52.294;5.152;2022-12-18T09:43:35;102675.19;;;-4.64;100.00
51289;BME280;37372;52.294;5.152;2022-12-18T09:46:06;102669.47;;;-4.57;100.00
51289;BME280;37372;52.294;5.152;2022-12-18T09:48:37;102671.63;;;-4.64;100.00
51289;BME280;37372;52.294;5.152;2022-12-18T09:51:15;102664.25;;;-4.59;100.00
51289;BME280;37372;52.294;5.152;2022-12-18T09:53:47;102663.47;;;-4.44;100.00
51289;BME280;37372;52.294;5.152;2022-12-18T09:56:18;102668.16;;;-4.34;100.00
51289;BME280;37372;52.294;5.152;2022-12-18T09:59:03;102657.47;;;-4.30;100.00
51289;BME280;37372;52.294;5.152;2022-12-18T10:01:30;102659.13;;;-4.40;100.00
51289;BME280;37372;52.294;5.152;2022-12-18T10:03:57;102653.38;;;-4.33;100.00
51289;BME280;37372;52.294;5.152;2022-12-18T10:09:24;102652.88;;;-4.20;100.00
51289;BME280;37372;52.294;5.152;2022-12-18T10:14:54;102660.81;;;-4.03;100.00
51289;BME280;37372;52.294;5.152;2022-12-18T10:22:47;102650.44;;;-3.80;100.00
51289;BME280;37372;52.294;5.152;2022-12-18T10:25:28;102650.44;;;-3.70;100.00
51289;BME280;37372;52.294;5.152;2022-12-18T10:28:15;102647.69;;;-3.65;100.00
51289;BME280;37372;52.294;5.152;2022-12-18T10:30:42;102641.41;;;-3.76;100.00
51289;BME280;37372;52.294;5.152;2022-12-18T10:33:20;102643.59;;;-3.78;100.00
51289;BME280;37372;52.294;5.152;2022-12-18T10:35:47;102648.25;;;-3.58;100.00
51289;BME280;37372;52.294;5.152;2022-12-18T10:40:58;102637.81;;;-3.45;100.00
51289;BME280;37372;52.294;5.152;2022-12-18T10:43:32;102633.41;;;-3.46;100.00
51289;BME280;37372;52.294;5.152;2022-12-18T10:48:26;102624.91;;;-3.35;100.00
51289;BME280;37372;52.294;5.152;2022-12-18T10:50:52;102624.59;;;-3.18;100.00
51289;BME280;37372;52.294;5.152;2022-12-18T10:53:24;102633.34;;;-3.16;100.00
51289;BME280;37372;52.294;5.152;2022-12-18T10:55:52;102623.47;;;-3.12;100.00
51289;BME280;37372;52.294;5.152;2022-12-18T10:58:30;102614.13;;;-3.11;100.00
51289;BME280;37372;52.294;5.152;2022-12-18T11:03:41;102598.72;;;-3.01;100.00
51289;BME280;37372;52.294;5.152;2022-12-18T11:06:18;102596.03;;;-3.17;100.00
51289;BME280;37372;52.294;5.152;2022-12-18T11:08:57;102590.28;;;-3.15;100.00
51289;BME280;37372;52.294;5.152;2022-12-18T11:11:24;102595.44;;;-3.03;100.00
51289;BME280;37372;52.294;5.152;2022-12-18T11:14:14;102589.34;;;-2.95;100.00
51289;BME280;37372;52.294;5.152;2022-12-18T11:16:46;102586.59;;;-2.90;100.00
51289;BME280;37372;52.294;5.152;2022-12-18T11:21:44;102572.28;;;-2.82;100.00
51289;BME280;37372;52.294;5.152;2022-12-18T11:24:32;102573.06;;;-2.71;100.00
51289;BME280;37372;52.294;5.152;2022-12-18T11:27:03;102575.47;;;-2.59;100.00
51289;BME280;37372;52.294;5.152;2022-12-18T11:29:33;102588.34;;;-2.55;100.00
51289;BME280;37372;52.294;5.152;2022-12-18T11:34:59;102574.63;;;-2.60;100.00
51289;BME280;37372;52.294;5.152;2022-12-18T11:37:26;102576.00;;;-2.63;100.00
51289;BME280;37372;52.294;5.152;2022-12-18T11:40:02;102580.63;;;-2.53;100.00
51289;BME280;37372;52.294;5.152;2022-12-18T11:42:34;102578.66;;;-2.47;100.00
51289;BME280;37372;52.294;5.152;2022-12-18T11:48:12;102573.03;;;-2.27;100.00
51289;BME280;37372;52.294;5.152;2022-12-18T11:50:52;102561.56;;;-2.34;100.00
51289;BME280;37372;52.294;5.152;2022-12-18T11:53:19;102557.84;;;-2.19;100.00
51289;BME280;37372;52.294;5.152;2022-12-18T11:58:42;102532.34;;;-2.25;100.00
51289;BME280;37372;52.294;5.152;2022-12-18T12:01:18;102525.78;;;-2.29;100.00
51289;BME280;37372;52.294;5.152;2022-12-18T12:06:56;102502.50;;;-2.36;100.00
51289;BME280;37372;52.294;5.152;2022-12-18T12:14:58;102499.75;;;-2.07;100.00
51289;BME280;37372;52.294;5.152;2022-12-18T12:17:39;102498.16;;;-2.13;100.00
51289;BME280;37372;52.294;5.152;2022-12-18T12:20:22;102489.66;;;-2.17;100.00
51289;BME280;37372;52.294;5.152;2022-12-18T12:23:19;102494.75;;;-2.00;100.00
51289;BME280;37372;52.294;5.152;2022-12-18T12:31:11;102473.44;;;-2.13;100.00
51289;BME280;37372;52.294;5.152;2022-12-18T12:34:05;102463.97;;;-2.02;100.00
51289;BME280;37372;52.294;5.152;2022-12-18T12:36:48;102470.28;;;-2.02;100.00
51289;BME280;37372;52.294;5.152;2022-12-18T12:39:21;102467.47;;;-1.97;100.00
51289;BME280;37372;52.294;5.152;2022-12-18T12:41:48;102462.84;;;-2.01;100.00
51289;BME280;37372;52.294;5.152;2022-12-18T12:44:37;102461.09;;;-1.92;100.00
51289;BME280;37372;52.294;5.152;2022-12-18T12:47:14;102461.06;;;-1.87;100.00
51289;BME280;37372;52.294;5.152;2022-12-18T12:49:45;102458.84;;;-1.85;100.00
51289;BME280;37372;52.294;5.152;2022-12-18T12:52:17;102451.34;;;-1.79;100.00
51289;BME280;37372;52.294;5.152;2022-12-18T12:54:48;102448.41;;;-1.88;100.00
51289;BME280;37372;52.294;5.152;2022-12-18T12:59:49;102445.47;;;-1.97;100.00
51289;BME280;37372;52.294;5.152;2022-12-18T13:02:22;102435.75;;;-1.89;100.00
51289;BME280;37372;52.294;5.152;2022-12-18T13:04:59;102442.50;;;-2.00;100.00
51289;BME280;37372;52.294;5.152;2022-12-18T13:07:41;102441.50;;;-1.85;100.00
51289;BME280;37372;52.294;5.152;2022-12-18T13:16:05;102440.66;;;-1.86;100.00
51289;BME280;37372;52.294;5.152;2022-12-18T13:18:32;102439.63;;;-1.90;100.00
51289;BME280;37372;52.294;5.152;2022-12-18T13:31:01;102422.06;;;-1.94;100.00
51289;BME280;37372;52.294;5.152;2022-12-18T13:36:16;102400.16;;;-2.04;100.00
51289;BME280;37372;52.294;5.152;2022-12-18T13:38:43;102396.28;;;-1.98;100.00
51289;BME280;37372;52.294;5.152;2022-12-18T13:44:50;102369.16;;;-1.86;100.00
51289;BME280;37372;52.294;5.152;2022-12-18T13:46:58;102368.41;;;-1.91;100.00
51289;BME280;37372;52.294;5.152;2022-12-18T13:51:54;102356.06;;;-1.94;100.00
51289;BME280;37372;52.294;5.152;2022-12-18T13:54:47;102353.50;;;-1.85;100.00
51289;BME280;37372;52.294;5.152;2022-12-18T13:57:33;102353.13;;;-2.03;100.00
51289;BME280;37372;52.294;5.152;2022-12-18T14:06:06;102352.22;;;-1.93;100.00
51289;BME280;37372;52.294;5.152;2022-12-18T14:08:37;102352.66;;;-1.86;100.00
51289;BME280;37372;52.294;5.152;2022-12-18T14:11:04;102355.94;;;-1.84;100.00
51289;BME280;37372;52.294;5.152;2022-12-18T14:13:41;102349.59;;;-1.84;100.00
51289;BME280;37372;52.294;5.152;2022-12-18T14:16:12;102357.72;;;-1.74;100.00
51289;BME280;37372;52.294;5.152;2022-12-18T14:18:43;102346.25;;;-1.81;100.00
51289;BME280;37372;52.294;5.152;2022-12-18T14:21:22;102338.00;;;-1.81;100.00
51289;BME280;37372;52.294;5.152;2022-12-18T14:23:48;102336.47;;;-1.68;100.00
51289;BME280;37372;52.294;5.152;2022-12-18T14:26:26;102334.84;;;-1.69;100.00
51289;BME280;37372;52.294;5.152;2022-12-18T14:28:55;102330.00;;;-1.78;100.00
51289;BME280;37372;52.294;5.152;2022-12-18T14:31:26;102333.56;;;-1.77;100.00